sensor_id;sensor_type;location;lat;lon;timestamp;temperature;humidity
5792;DHT22;2922;53.482;10.006;2023-11-21T00:00:20;9.30;99.90
5792;DHT22;2922;53.482;10.006;2023-11-21T00:02:46;9.30;99.90
5792;DHT22;2922;53.482;10.006;2023-11-21T00:05:12;9.30;99.90
5792;DHT22;2922;53.482;10.006;2023-11-21T00:07:39;9.30;99.90
5792;DHT22;2922;53.482;10.006;2023-11-21T00:10:06;9.20;99.90
5792;DHT22;2922;53.482;10.006;2023-11-21T00:12:32;9.20;99.90
5792;DHT22;2922;53.482;10.006;2023-11-21T00:14:58;9.20;99.90
5792;DHT22;2922;53.482;10.006;2023-11-21T00:17:24;9.10;99.90
5792;DHT22;2922;53.482;10.006;2023-11-21T00:19:50;9.10;99.90
5792;DHT22;2922;53.482;10.006;2023-11-21T00:22:17;9.10;99.90
5792;DHT22;2922;53.482;10.006;2023-11-21T00:24:43;9.00;99.90
5792;DHT22;2922;53.482;10.006;2023-11-21T00:27:09;9.00;99.90
5792;DHT22;2922;53.482;10.006;2023-11-21T00:29:34;9.00;99.90
5792;DHT22;2922;53.482;10.006;2023-11-21T00:32:00;8.90;99.90
5792;DHT22;2922;53.482;10.006;2023-11-21T00:34:25;8.90;99.90
5792;DHT22;2922;53.482;10.006;2023-11-21T00:36:51;8.80;99.90
5792;DHT22;2922;53.482;10.006;2023-11-21T00:39:16;8.80;99.90
5792;DHT22;2922;53.482;10.006;2023-11-21T00:41:42;8.80;99.90
5792;DHT22;2922;53.482;10.006;2023-11-21T00:44:10;8.80;99.90
5792;DHT22;2922;53.482;10.006;2023-11-21T00:46:35;8.80;99.90
5792;DHT22;2922;53.482;10.006;2023-11-21T00:49:02;8.70;99.90
5792;DHT22;2922;53.482;10.006;2023-11-21T00:51:29;8.70;99.90
5792;DHT22;2922;53.482;10.006;2023-11-21T00:53:55;8.70;99.90
5792;DHT22;2922;53.482;10.006;2023-11-21T00:56:21;8.60;99.90
5792;DHT22;2922;53.482;10.006;2023-11-21T00:58:47;8.60;99.90
5792;DHT22;2922;53.482;10.006;2023-11-21T01:01:15;8.50;99.90
5792;DHT22;2922;53.482;10.006;2023-11-21T01:03:41;8.50;99.90
5792;DHT22;2922;53.482;10.006;2023-11-21T01:06:07;8.40;99.90
5792;DHT22;2922;53.482;10.006;2023-11-21T01:08:34;8.40;99.90
5792;DHT22;2922;53.482;10.006;2023-11-21T01:10:59;8.40;99.90
5792;DHT22;2922;53.482;10.006;2023-11-21T01:13:25;8.40;99.90
5792;DHT22;2922;53.482;10.006;2023-11-21T01:15:55;8.30;99.90
5792;DHT22;2922;53.482;10.006;2023-11-21T01:18:21;8.30;99.90
5792;DHT22;2922;53.482;10.006;2023-11-21T01:20:46;8.20;99.90
5792;DHT22;2922;53.482;10.006;2023-11-21T01:23:13;8.20;99.90
5792;DHT22;2922;53.482;10.006;2023-11-21T01:25:38;8.10;99.90
5792;DHT22;2922;53.482;10.006;2023-11-21T01:28:04;8.10;99.90
5792;DHT22;2922;53.482;10.006;2023-11-21T01:30:29;8.10;99.90
5792;DHT22;2922;53.482;10.006;2023-11-21T01:32:55;8.10;99.90
5792;DHT22;2922;53.482;10.006;2023-11-21T01:35:22;8.10;99.90
5792;DHT22;2922;53.482;10.006;2023-11-21T01:37:47;8.00;99.90
5792;DHT22;2922;53.482;10.006;2023-11-21T01:40:13;8.00;99.90
5792;DHT22;2922;53.482;10.006;2023-11-21T01:42:40;7.90;99.90
5792;DHT22;2922;53.482;10.006;2023-11-21T01:45:06;7.90;99.90
5792;DHT22;2922;53.482;10.006;2023-11-21T01:47:33;8.00;99.90
5792;DHT22;2922;53.482;10.006;2023-11-21T01:50:01;7.90;99.90
5792;DHT22;2922;53.482;10.006;2023-11-21T01:52:30;7.90;99.90
5792;DHT22;2922;53.482;10.006;2023-11-21T01:54:55;7.90;99.90
5792;DHT22;2922;53.482;10.006;2023-11-21T01:57:21;7.90;99.90
5792;DHT22;2922;53.482;10.006;2023-11-21T01:59:49;7.90;99.90
5792;DHT22;2922;53.482;10.006;2023-11-21T02:02:15;7.80;99.90
5792;DHT22;2922;53.482;10.006;2023-11-21T02:04:41;7.80;99.90
5792;DHT22;2922;53.482;10.006;2023-11-21T02:07:07;7.80;99.90
5792;DHT22;2922;53.482;10.006;2023-11-21T02:09:32;7.80;99.90
5792;DHT22;2922;53.482;10.006;2023-11-21T02:12:03;7.80;99.90
5792;DHT22;2922;53.482;10.006;2023-11-21T02:14:30;7.80;99.90
5792;DHT22;2922;53.482;10.006;2023-11-21T02:16:56;7.80;99.90
5792;DHT22;2922;53.482;10.006;2023-11-21T02:19:23;7.70;99.90
5792;DHT22;2922;53.482;10.006;2023-11-21T02:21:51;7.70;99.90
5792;DHT22;2922;53.482;10.006;2023-11-21T02:24:26;7.60;99.90
5792;DHT22;2922;53.482;10.006;2023-11-21T02:26:52;7.70;99.90
5792;DHT22;2922;53.482;10.006;2023-11-21T02:29:21;7.70;99.90
5792;DHT22;2922;53.482;10.006;2023-11-21T02:31:54;7.60;99.90
5792;DHT22;2922;53.482;10.006;2023-11-21T02:34:20;7.60;99.90
5792;DHT22;2922;53.482;10.006;2023-11-21T02:36:47;7.60;99.90
5792;DHT22;2922;53.482;10.006;2023-11-21T02:39:15;7.60;99.90
5792;DHT22;2922;53.482;10.006;2023-11-21T02:41:40;7.60;99.90
5792;DHT22;2922;53.482;10.006;2023-11-21T02:44:06;7.60;99.90
5792;DHT22;2922;53.482;10.006;2023-11-21T02:46:36;7.60;99.90
5792;DHT22;2922;53.482;10.006;2023-11-21T02:49:03;7.50;99.90
5792;DHT22;2922;53.482;10.006;2023-11-21T02:51:29;7.50;99.90
5792;DHT22;2922;53.482;10.006;2023-11-21T02:53:55;7.50;99.90
5792;DHT22;2922;53.482;10.006;2023-11-21T02:56:25;7.50;99.90
5792;DHT22;2922;53.482;10.006;2023-11-21T02:58:51;7.50;99.90
5792;DHT22;2922;53.482;10.006;2023-11-21T03:01:17;7.50;99.90
5792;DHT22;2922;53.482;10.006;2023-11-21T03:03:43;7.50;99.90
5792;DHT22;2922;53.482;10.006;2023-11-21T03:06:08;7.50;99.90
5792;DHT22;2922;53.482;10.006;2023-11-21T03:08:34;7.40;99.90
5792;DHT22;2922;53.482;10.006;2023-11-21T03:11:00;7.40;99.90
5792;DHT22;2922;53.482;10.006;2023-11-21T03:13:26;7.40;99.90
5792;DHT22;2922;53.482;10.006;2023-11-21T03:15:51;7.40;99.90
5792;DHT22;2922;53.482;10.006;2023-11-21T03:18:17;7.30;99.90
5792;DHT22;2922;53.482;10.006;2023-11-21T03:20:43;7.30;99.90
5792;DHT22;2922;53.482;10.006;2023-11-21T03:23:11;7.30;99.90
5792;DHT22;2922;53.482;10.006;2023-11-21T03:25:37;7.30;99.90
5792;DHT22;2922;53.482;10.006;2023-11-21T03:28:02;7.30;99.90
5792;DHT22;2922;53.482;10.006;2023-11-21T03:30:28;7.30;99.90
5792;DHT22;2922;53.482;10.006;2023-11-21T03:32:54;7.20;99.90
5792;DHT22;2922;53.482;10.006;2023-11-21T03:35:19;7.30;99.90
5792;DHT22;2922;53.482;10.006;2023-11-21T03:37:46;7.20;99.90
5792;DHT22;2922;53.482;10.006;2023-11-21T03:40:12;7.20;99.90
5792;DHT22;2922;53.482;10.006;2023-11-21T03:42:38;7.20;99.90
5792;DHT22;2922;53.482;10.006;2023-11-21T03:45:07;7.20;99.90
5792;DHT22;2922;53.482;10.006;2023-11-21T03:47:34;7.20;99.90
5792;DHT22;2922;53.482;10.006;2023-11-21T03:49:59;7.20;99.90
5792;DHT22;2922;53.482;10.006;2023-11-21T03:52:25;7.20;99.90
5792;DHT22;2922;53.482;10.006;2023-11-21T03:54:50;7.20;99.90
5792;DHT22;2922;53.482;10.006;2023-11-21T03:57:16;7.20;99.90
5792;DHT22;2922;53.482;10.006;2023-11-21T03:59:43;7.10;99.90
5792;DHT22;2922;53.482;10.006;2023-11-21T04:02:08;7.10;99.90
5792;DHT22;2922;53.482;10.006;2023-11-21T04:04:35;7.10;99.90
5792;DHT22;2922;53.482;10.006;2023-11-21T04:07:01;7.10;99.90
5792;DHT22;2922;53.482;10.006;2023-11-21T04:09:27;7.10;99.90
5792;DHT22;2922;53.482;10.006;2023-11-21T04:11:53;7.10;99.90
5792;DHT22;2922;53.482;10.006;2023-11-21T04:14:20;7.10;99.90
5792;DHT22;2922;53.482;10.006;2023-11-21T04:16:45;7.00;99.90
5792;DHT22;2922;53.482;10.006;2023-11-21T04:19:11;7.00;99.90
5792;DHT22;2922;53.482;10.006;2023-11-21T04:21:37;7.00;99.90
5792;DHT22;2922;53.482;10.006;2023-11-21T04:24:03;7.00;99.90
5792;DHT22;2922;53.482;10.006;2023-11-21T04:26:29;7.00;99.90
5792;DHT22;2922;53.482;10.006;2023-11-21T04:28:55;7.00;99.90
5792;DHT22;2922;53.482;10.006;2023-11-21T04:31:20;7.00;99.90
5792;DHT22;2922;53.482;10.006;2023-11-21T04:33:46;7.00;99.90
5792;DHT22;2922;53.482;10.006;2023-11-21T04:36:12;7.00;99.90
5792;DHT22;2922;53.482;10.006;2023-11-21T04:38:37;7.00;99.90
5792;DHT22;2922;53.482;10.006;2023-11-21T04:41:03;7.00;99.90
5792;DHT22;2922;53.482;10.006;2023-11-21T04:43:29;7.00;99.90
5792;DHT22;2922;53.482;10.006;2023-11-21T04:45:55;7.00;99.90
5792;DHT22;2922;53.482;10.006;2023-11-21T04:48:20;7.00;99.90
5792;DHT22;2922;53.482;10.006;2023-11-21T04:50:46;7.00;99.90
5792;DHT22;2922;53.482;10.006;2023-11-21T04:53:11;7.00;99.90
5792;DHT22;2922;53.482;10.006;2023-11-21T04:55:42;7.00;99.90
5792;DHT22;2922;53.482;10.006;2023-11-21T04:58:08;7.00;99.90
5792;DHT22;2922;53.482;10.006;2023-11-21T05:00:34;7.00;99.90
5792;DHT22;2922;53.482;10.006;2023-11-21T05:03:00;7.00;99.90
5792;DHT22;2922;53.482;10.006;2023-11-21T05:05:29;7.00;99.90
5792;DHT22;2922;53.482;10.006;2023-11-21T05:07:55;7.00;99.90
5792;DHT22;2922;53.482;10.006;2023-11-21T05:10:21;7.00;99.90
5792;DHT22;2922;53.482;10.006;2023-11-21T05:12:48;7.00;99.90
5792;DHT22;2922;53.482;10.006;2023-11-21T05:15:16;7.00;99.90
5792;DHT22;2922;53.482;10.006;2023-11-21T05:17:42;7.00;99.90
5792;DHT22;2922;53.482;10.006;2023-11-21T05:20:10;7.00;99.90
5792;DHT22;2922;53.482;10.006;2023-11-21T05:22:36;7.00;99.90
5792;DHT22;2922;53.482;10.006;2023-11-21T05:25:03;7.00;99.90
5792;DHT22;2922;53.482;10.006;2023-11-21T05:27:29;6.90;99.90
5792;DHT22;2922;53.482;10.006;2023-11-21T05:29:58;7.00;99.90
5792;DHT22;2922;53.482;10.006;2023-11-21T05:32:25;6.90;99.90
5792;DHT22;2922;53.482;10.006;2023-11-21T05:34:51;7.00;99.90
5792;DHT22;2922;53.482;10.006;2023-11-21T05:37:16;6.90;99.90
5792;DHT22;2922;53.482;10.006;2023-11-21T05:39:43;7.00;99.90
5792;DHT22;2922;53.482;10.006;2023-11-21T05:42:08;7.00;99.90
5792;DHT22;2922;53.482;10.006;2023-11-21T05:44:36;7.00;99.90
5792;DHT22;2922;53.482;10.006;2023-11-21T05:47:02;7.00;99.90
5792;DHT22;2922;53.482;10.006;2023-11-21T05:49:29;7.00;99.90
5792;DHT22;2922;53.482;10.006;2023-11-21T05:51:55;7.00;99.90
5792;DHT22;2922;53.482;10.006;2023-11-21T05:54:21;7.00;99.90
5792;DHT22;2922;53.482;10.006;2023-11-21T05:56:47;7.00;99.90
5792;DHT22;2922;53.482;10.006;2023-11-21T05:59:13;7.00;99.90
5792;DHT22;2922;53.482;10.006;2023-11-21T06:01:38;7.00;99.90
5792;DHT22;2922;53.482;10.006;2023-11-21T06:04:05;6.90;99.90
5792;DHT22;2922;53.482;10.006;2023-11-21T06:06:30;6.90;99.90
5792;DHT22;2922;53.482;10.006;2023-11-21T06:08:57;6.90;99.90
5792;DHT22;2922;53.482;10.006;2023-11-21T06:11:22;6.90;99.90
5792;DHT22;2922;53.482;10.006;2023-11-21T06:13:50;6.90;99.90
5792;DHT22;2922;53.482;10.006;2023-11-21T06:16:15;6.90;99.90
5792;DHT22;2922;53.482;10.006;2023-11-21T06:18:41;6.90;99.90
5792;DHT22;2922;53.482;10.006;2023-11-21T06:21:09;6.90;99.90
5792;DHT22;2922;53.482;10.006;2023-11-21T06:23:35;6.90;99.90
5792;DHT22;2922;53.482;10.006;2023-11-21T06:26:01;6.90;99.90
5792;DHT22;2922;53.482;10.006;2023-11-21T06:28:26;6.90;99.90
5792;DHT22;2922;53.482;10.006;2023-11-21T06:30:52;6.90;99.90
5792;DHT22;2922;53.482;10.006;2023-11-21T06:33:18;6.80;99.90
5792;DHT22;2922;53.482;10.006;2023-11-21T06:35:44;6.80;99.90
5792;DHT22;2922;53.482;10.006;2023-11-21T06:38:10;6.80;99.90
5792;DHT22;2922;53.482;10.006;2023-11-21T06:40:35;6.80;99.90
5792;DHT22;2922;53.482;10.006;2023-11-21T06:43:01;6.80;99.90
5792;DHT22;2922;53.482;10.006;2023-11-21T06:45:27;6.80;99.90
5792;DHT22;2922;53.482;10.006;2023-11-21T06:47:53;6.80;99.90
5792;DHT22;2922;53.482;10.006;2023-11-21T06:50:18;6.80;99.90
5792;DHT22;2922;53.482;10.006;2023-11-21T06:52:44;6.80;99.90
5792;DHT22;2922;53.482;10.006;2023-11-21T06:55:09;6.80;99.90
5792;DHT22;2922;53.482;10.006;2023-11-21T06:57:36;6.80;99.90
5792;DHT22;2922;53.482;10.006;2023-11-21T07:00:02;6.80;99.90
5792;DHT22;2922;53.482;10.006;2023-11-21T07:02:28;6.80;99.90
5792;DHT22;2922;53.482;10.006;2023-11-21T07:04:54;6.80;99.90
5792;DHT22;2922;53.482;10.006;2023-11-21T07:07:19;6.80;99.90
5792;DHT22;2922;53.482;10.006;2023-11-21T07:09:45;6.80;99.90
5792;DHT22;2922;53.482;10.006;2023-11-21T07:12:10;6.90;99.90
5792;DHT22;2922;53.482;10.006;2023-11-21T07:14:36;6.90;99.90
5792;DHT22;2922;53.482;10.006;2023-11-21T07:17:04;6.90;99.90
5792;DHT22;2922;53.482;10.006;2023-11-21T07:19:30;6.90;99.90
5792;DHT22;2922;53.482;10.006;2023-11-21T07:21:56;6.90;99.90
5792;DHT22;2922;53.482;10.006;2023-11-21T07:24:22;6.90;99.90
5792;DHT22;2922;53.482;10.006;2023-11-21T07:26:48;6.90;99.90
5792;DHT22;2922;53.482;10.006;2023-11-21T07:29:14;6.90;99.90
5792;DHT22;2922;53.482;10.006;2023-11-21T07:31:42;6.90;99.90
5792;DHT22;2922;53.482;10.006;2023-11-21T07:34:07;6.90;99.90
5792;DHT22;2922;53.482;10.006;2023-11-21T07:36:33;6.90;99.90
5792;DHT22;2922;53.482;10.006;2023-11-21T07:38:59;6.90;99.90
5792;DHT22;2922;53.482;10.006;2023-11-21T07:41:24;6.90;99.90
5792;DHT22;2922;53.482;10.006;2023-11-21T07:43:50;6.90;99.90
5792;DHT22;2922;53.482;10.006;2023-11-21T07:46:16;6.90;99.90
5792;DHT22;2922;53.482;10.006;2023-11-21T07:48:42;6.90;99.90
5792;DHT22;2922;53.482;10.006;2023-11-21T07:51:08;6.90;99.90
5792;DHT22;2922;53.482;10.006;2023-11-21T07:53:36;6.90;99.90
5792;DHT22;2922;53.482;10.006;2023-11-21T07:56:06;6.90;99.90
5792;DHT22;2922;53.482;10.006;2023-11-21T07:58:33;6.90;99.90
5792;DHT22;2922;53.482;10.006;2023-11-21T08:00:59;6.90;99.90
5792;DHT22;2922;53.482;10.006;2023-11-21T08:03:25;6.90;99.90
5792;DHT22;2922;53.482;10.006;2023-11-21T08:05:52;7.00;99.90
5792;DHT22;2922;53.482;10.006;2023-11-21T08:08:18;7.00;99.90
5792;DHT22;2922;53.482;10.006;2023-11-21T08:10:44;7.00;99.90
5792;DHT22;2922;53.482;10.006;2023-11-21T08:13:13;7.00;99.90
5792;DHT22;2922;53.482;10.006;2023-11-21T08:15:42;7.00;99.90
5792;DHT22;2922;53.482;10.006;2023-11-21T08:18:11;7.10;99.90
5792;DHT22;2922;53.482;10.006;2023-11-21T08:20:38;7.00;99.90
5792;DHT22;2922;53.482;10.006;2023-11-21T08:23:05;7.10;99.90
5792;DHT22;2922;53.482;10.006;2023-11-21T08:25:31;7.10;99.90
5792;DHT22;2922;53.482;10.006;2023-11-21T08:27:58;7.10;99.90
5792;DHT22;2922;53.482;10.006;2023-11-21T08:30:24;7.10;99.90
5792;DHT22;2922;53.482;10.006;2023-11-21T08:32:50;7.10;99.90
5792;DHT22;2922;53.482;10.006;2023-11-21T08:35:17;7.20;99.90
5792;DHT22;2922;53.482;10.006;2023-11-21T08:37:43;7.20;99.90
5792;DHT22;2922;53.482;10.006;2023-11-21T08:40:09;7.20;99.90
5792;DHT22;2922;53.482;10.006;2023-11-21T08:42:35;7.20;99.90
5792;DHT22;2922;53.482;10.006;2023-11-21T08:45:01;7.30;99.90
5792;DHT22;2922;53.482;10.006;2023-11-21T08:47:27;7.30;99.90
5792;DHT22;2922;53.482;10.006;2023-11-21T08:49:52;7.30;99.90
5792;DHT22;2922;53.482;10.006;2023-11-21T08:52:19;7.30;99.90
5792;DHT22;2922;53.482;10.006;2023-11-21T08:54:48;7.40;99.90
5792;DHT22;2922;53.482;10.006;2023-11-21T08:57:23;7.40;99.90
5792;DHT22;2922;53.482;10.006;2023-11-21T08:59:49;7.40;99.90
5792;DHT22;2922;53.482;10.006;2023-11-21T09:02:21;7.30;99.90
5792;DHT22;2922;53.482;10.006;2023-11-21T09:04:47;7.30;99.90
5792;DHT22;2922;53.482;10.006;2023-11-21T09:07:12;7.30;99.90
5792;DHT22;2922;53.482;10.006;2023-11-21T09:09:38;7.30;99.90
5792;DHT22;2922;53.482;10.006;2023-11-21T09:12:04;7.30;99.90
5792;DHT22;2922;53.482;10.006;2023-11-21T09:14:29;7.30;99.90
5792;DHT22;2922;53.482;10.006;2023-11-21T09:16:55;7.30;99.90
5792;DHT22;2922;53.482;10.006;2023-11-21T09:19:21;7.30;99.90
5792;DHT22;2922;53.482;10.006;2023-11-21T09:21:47;7.30;99.90
5792;DHT22;2922;53.482;10.006;2023-11-21T09:24:12;7.30;99.90
5792;DHT22;2922;53.482;10.006;2023-11-21T09:26:38;7.30;99.90
5792;DHT22;2922;53.482;10.006;2023-11-21T09:29:04;7.30;99.90
5792;DHT22;2922;53.482;10.006;2023-11-21T09:31:29;7.30;99.90
5792;DHT22;2922;53.482;10.006;2023-11-21T09:33:56;7.30;99.90
5792;DHT22;2922;53.482;10.006;2023-11-21T09:36:22;7.30;99.90
5792;DHT22;2922;53.482;10.006;2023-11-21T09:38:53;7.30;99.90
5792;DHT22;2922;53.482;10.006;2023-11-21T09:41:34;7.30;99.90
5792;DHT22;2922;53.482;10.006;2023-11-21T09:44:08;7.30;99.90
5792;DHT22;2922;53.482;10.006;2023-11-21T09:46:37;7.30;99.90
5792;DHT22;2922;53.482;10.006;2023-11-21T09:49:07;7.40;99.90
5792;DHT22;2922;53.482;10.006;2023-11-21T09:51:39;7.40;99.90
5792;DHT22;2922;53.482;10.006;2023-11-21T09:54:06;7.40;99.90
5792;DHT22;2922;53.482;10.006;2023-11-21T09:56:34;7.50;99.90
5792;DHT22;2922;53.482;10.006;2023-11-21T09:59:01;7.50;99.90
5792;DHT22;2922;53.482;10.006;2023-11-21T10:01:36;7.50;99.90
5792;DHT22;2922;53.482;10.006;2023-11-21T10:04:03;7.50;99.90
5792;DHT22;2922;53.482;10.006;2023-11-21T10:06:28;7.60;99.90
5792;DHT22;2922;53.482;10.006;2023-11-21T10:08:55;7.60;99.90
5792;DHT22;2922;53.482;10.006;2023-11-21T10:11:25;7.70;99.90
5792;DHT22;2922;53.482;10.006;2023-11-21T10:13:55;7.70;99.90
5792;DHT22;2922;53.482;10.006;2023-11-21T10:16:25;7.70;99.90
5792;DHT22;2922;53.482;10.006;2023-11-21T10:18:52;7.70;99.90
5792;DHT22;2922;53.482;10.006;2023-11-21T10:21:20;7.70;99.90
5792;DHT22;2922;53.482;10.006;2023-11-21T10:23:47;7.70;99.90
5792;DHT22;2922;53.482;10.006;2023-11-21T10:26:13;7.70;99.90
5792;DHT22;2922;53.482;10.006;2023-11-21T10:28:55;7.70;99.90
5792;DHT22;2922;53.482;10.006;2023-11-21T10:31:22;7.80;99.90
5792;DHT22;2922;53.482;10.006;2023-11-21T10:33:50;7.80;99.90
5792;DHT22;2922;53.482;10.006;2023-11-21T10:36:25;7.80;99.90
5792;DHT22;2922;53.482;10.006;2023-11-21T10:38:52;7.90;99.90
5792;DHT22;2922;53.482;10.006;2023-11-21T10:41:18;8.00;99.90
5792;DHT22;2922;53.482;10.006;2023-11-21T10:43:44;8.00;99.90
5792;DHT22;2922;53.482;10.006;2023-11-21T10:46:10;8.10;99.90
5792;DHT22;2922;53.482;10.006;2023-11-21T10:48:35;8.00;99.90
5792;DHT22;2922;53.482;10.006;2023-11-21T10:51:09;8.10;99.90
5792;DHT22;2922;53.482;10.006;2023-11-21T10:53:42;8.00;99.90
5792;DHT22;2922;53.482;10.006;2023-11-21T10:56:09;8.00;99.90
5792;DHT22;2922;53.482;10.006;2023-11-21T10:58:43;8.00;99.90
5792;DHT22;2922;53.482;10.006;2023-11-21T11:01:09;8.00;99.90
5792;DHT22;2922;53.482;10.006;2023-11-21T11:03:37;8.00;99.90
5792;DHT22;2922;53.482;10.006;2023-11-21T11:06:05;8.00;99.90
5792;DHT22;2922;53.482;10.006;2023-11-21T11:08:34;8.00;99.90
5792;DHT22;2922;53.482;10.006;2023-11-21T11:11:00;8.00;99.90
5792;DHT22;2922;53.482;10.006;2023-11-21T11:13:26;8.10;99.90
5792;DHT22;2922;53.482;10.006;2023-11-21T11:15:58;8.10;99.90
5792;DHT22;2922;53.482;10.006;2023-11-21T11:18:25;8.10;99.90
5792;DHT22;2922;53.482;10.006;2023-11-21T11:20:52;8.10;99.90
5792;DHT22;2922;53.482;10.006;2023-11-21T11:29:10;8.10;99.90
5792;DHT22;2922;53.482;10.006;2023-11-21T11:32:03;8.10;99.90
5792;DHT22;2922;53.482;10.006;2023-11-21T11:34:33;8.10;99.90
5792;DHT22;2922;53.482;10.006;2023-11-21T11:37:04;8.20;99.90
5792;DHT22;2922;53.482;10.006;2023-11-21T11:39:35;8.30;99.90
5792;DHT22;2922;53.482;10.006;2023-11-21T11:42:08;8.20;99.90
5792;DHT22;2922;53.482;10.006;2023-11-21T11:50:06;8.30;99.90
5792;DHT22;2922;53.482;10.006;2023-11-21T11:52:50;8.30;99.90
5792;DHT22;2922;53.482;10.006;2023-11-21T11:55:18;8.30;99.90
5792;DHT22;2922;53.482;10.006;2023-11-21T11:57:52;8.40;99.90
5792;DHT22;2922;53.482;10.006;2023-11-21T12:03:00;8.50;99.90
5792;DHT22;2922;53.482;10.006;2023-11-21T12:05:29;8.60;99.90
5792;DHT22;2922;53.482;10.006;2023-11-21T12:08:05;8.60;99.90
5792;DHT22;2922;53.482;10.006;2023-11-21T12:10:32;8.60;99.90
5792;DHT22;2922;53.482;10.006;2023-11-21T12:13:00;8.60;99.90
5792;DHT22;2922;53.482;10.006;2023-11-21T12:15:27;8.70;99.90
5792;DHT22;2922;53.482;10.006;2023-11-21T12:17:56;8.60;99.90
5792;DHT22;2922;53.482;10.006;2023-11-21T12:20:23;8.50;99.90
5792;DHT22;2922;53.482;10.006;2023-11-21T12:22:52;8.50;99.90
5792;DHT22;2922;53.482;10.006;2023-11-21T12:25:20;8.40;99.90
5792;DHT22;2922;53.482;10.006;2023-11-21T12:27:48;8.50;99.90
5792;DHT22;2922;53.482;10.006;2023-11-21T12:30:22;8.40;99.90
5792;DHT22;2922;53.482;10.006;2023-11-21T12:32:52;8.30;99.90
5792;DHT22;2922;53.482;10.006;2023-11-21T12:35:19;8.30;99.90
5792;DHT22;2922;53.482;10.006;2023-11-21T12:37:45;8.30;99.90
5792;DHT22;2922;53.482;10.006;2023-11-21T12:40:12;8.20;99.90
5792;DHT22;2922;53.482;10.006;2023-11-21T12:42:41;8.10;99.90
5792;DHT22;2922;53.482;10.006;2023-11-21T12:47:47;8.10;99.90
5792;DHT22;2922;53.482;10.006;2023-11-21T12:50:13;8.00;99.90
5792;DHT22;2922;53.482;10.006;2023-11-21T12:52:45;8.00;99.90
5792;DHT22;2922;53.482;10.006;2023-11-21T12:55:19;8.00;99.90
5792;DHT22;2922;53.482;10.006;2023-11-21T12:57:52;8.00;99.90
5792;DHT22;2922;53.482;10.006;2023-11-21T13:00:22;7.90;99.90
5792;DHT22;2922;53.482;10.006;2023-11-21T13:02:54;7.90;99.90
5792;DHT22;2922;53.482;10.006;2023-11-21T13:05:34;7.90;99.90
5792;DHT22;2922;53.482;10.006;2023-11-21T13:08:04;7.80;99.90
5792;DHT22;2922;53.482;10.006;2023-11-21T13:10:33;7.80;99.90
5792;DHT22;2922;53.482;10.006;2023-11-21T13:13:02;7.70;99.90
5792;DHT22;2922;53.482;10.006;2023-11-21T13:15:31;7.70;99.90
5792;DHT22;2922;53.482;10.006;2023-11-21T13:17:58;7.70;99.90
5792;DHT22;2922;53.482;10.006;2023-11-21T13:20:27;7.70;99.90
5792;DHT22;2922;53.482;10.006;2023-11-21T13:22:54;7.60;99.90
5792;DHT22;2922;53.482;10.006;2023-11-21T13:25:27;7.60;99.90
5792;DHT22;2922;53.482;10.006;2023-11-21T13:27:59;7.60;99.90
5792;DHT22;2922;53.482;10.006;2023-11-21T13:30:26;7.60;99.90
5792;DHT22;2922;53.482;10.006;2023-11-21T13:32:53;7.50;99.90
5792;DHT22;2922;53.482;10.006;2023-11-21T13:35:23;7.50;99.90
5792;DHT22;2922;53.482;10.006;2023-11-21T13:37:57;7.50;99.90
5792;DHT22;2922;53.482;10.006;2023-11-21T13:40:25;7.50;99.90
5792;DHT22;2922;53.482;10.006;2023-11-21T13:42:55;7.40;99.90
5792;DHT22;2922;53.482;10.006;2023-11-21T13:45:25;7.40;99.90
5792;DHT22;2922;53.482;10.006;2023-11-21T13:47:53;7.40;99.90
5792;DHT22;2922;53.482;10.006;2023-11-21T13:50:28;7.40;99.90
5792;DHT22;2922;53.482;10.006;2023-11-21T13:53:01;7.40;99.90
5792;DHT22;2922;53.482;10.006;2023-11-21T13:55:34;7.40;99.90
5792;DHT22;2922;53.482;10.006;2023-11-21T13:58:01;7.40;99.90
5792;DHT22;2922;53.482;10.006;2023-11-21T14:00:30;7.40;99.90
5792;DHT22;2922;53.482;10.006;2023-11-21T14:03:07;7.40;99.90
5792;DHT22;2922;53.482;10.006;2023-11-21T14:05:41;7.40;99.90
5792;DHT22;2922;53.482;10.006;2023-11-21T14:08:08;7.30;99.90
5792;DHT22;2922;53.482;10.006;2023-11-21T14:10:37;7.30;99.90
5792;DHT22;2922;53.482;10.006;2023-11-21T14:13:08;7.30;99.90
5792;DHT22;2922;53.482;10.006;2023-11-21T14:15:36;7.30;99.90
5792;DHT22;2922;53.482;10.006;2023-11-21T14:18:09;7.30;99.90
5792;DHT22;2922;53.482;10.006;2023-11-21T14:20:42;7.30;99.90
5792;DHT22;2922;53.482;10.006;2023-11-21T14:23:09;7.20;99.90
5792;DHT22;2922;53.482;10.006;2023-11-21T14:25:36;7.20;99.90
5792;DHT22;2922;53.482;10.006;2023-11-21T14:28:03;7.10;99.90
5792;DHT22;2922;53.482;10.006;2023-11-21T14:30:29;7.20;99.90
5792;DHT22;2922;53.482;10.006;2023-11-21T14:32:58;7.10;99.90
5792;DHT22;2922;53.482;10.006;2023-11-21T14:35:24;7.10;99.90
5792;DHT22;2922;53.482;10.006;2023-11-21T14:37:50;7.10;99.90
5792;DHT22;2922;53.482;10.006;2023-11-21T14:40:16;7.10;99.90
5792;DHT22;2922;53.482;10.006;2023-11-21T14:42:43;7.00;99.90
5792;DHT22;2922;53.482;10.006;2023-11-21T14:45:13;7.00;99.90
5792;DHT22;2922;53.482;10.006;2023-11-21T14:47:44;7.00;99.90
5792;DHT22;2922;53.482;10.006;2023-11-21T14:50:16;6.90;99.90
5792;DHT22;2922;53.482;10.006;2023-11-21T14:53:05;6.90;99.90
5792;DHT22;2922;53.482;10.006;2023-11-21T14:55:35;6.90;99.90
5792;DHT22;2922;53.482;10.006;2023-11-21T14:58:06;6.80;99.90
5792;DHT22;2922;53.482;10.006;2023-11-21T15:00:36;6.80;99.90
5792;DHT22;2922;53.482;10.006;2023-11-21T15:03:02;6.80;99.90
5792;DHT22;2922;53.482;10.006;2023-11-21T15:05:28;6.80;99.90
5792;DHT22;2922;53.482;10.006;2023-11-21T15:07:55;6.80;99.90
5792;DHT22;2922;53.482;10.006;2023-11-21T15:10:24;6.70;99.90
5792;DHT22;2922;53.482;10.006;2023-11-21T15:13:10;6.70;99.90
5792;DHT22;2922;53.482;10.006;2023-11-21T15:15:36;6.70;99.90
5792;DHT22;2922;53.482;10.006;2023-11-21T15:18:02;6.70;99.90
5792;DHT22;2922;53.482;10.006;2023-11-21T15:20:28;6.70;99.90
5792;DHT22;2922;53.482;10.006;2023-11-21T15:22:55;6.60;99.90
5792;DHT22;2922;53.482;10.006;2023-11-21T15:25:21;6.60;99.90
5792;DHT22;2922;53.482;10.006;2023-11-21T15:27:47;6.60;99.90
5792;DHT22;2922;53.482;10.006;2023-11-21T15:30:15;6.60;99.90
5792;DHT22;2922;53.482;10.006;2023-11-21T15:32:45;6.50;99.90
5792;DHT22;2922;53.482;10.006;2023-11-21T15:35:11;6.50;99.90
5792;DHT22;2922;53.482;10.006;2023-11-21T15:37:40;6.40;99.90
5792;DHT22;2922;53.482;10.006;2023-11-21T15:40:06;6.40;99.90
5792;DHT22;2922;53.482;10.006;2023-11-21T15:42:34;6.30;99.90
5792;DHT22;2922;53.482;10.006;2023-11-21T15:45:02;6.30;99.90
5792;DHT22;2922;53.482;10.006;2023-11-21T15:47:28;6.30;99.90
5792;DHT22;2922;53.482;10.006;2023-11-21T15:49:54;6.30;99.90
5792;DHT22;2922;53.482;10.006;2023-11-21T15:52:19;6.30;99.90
5792;DHT22;2922;53.482;10.006;2023-11-21T15:54:45;6.30;99.90
5792;DHT22;2922;53.482;10.006;2023-11-21T15:57:12;6.30;99.90
5792;DHT22;2922;53.482;10.006;2023-11-21T15:59:40;6.30;99.90
5792;DHT22;2922;53.482;10.006;2023-11-21T16:02:07;6.30;99.90
5792;DHT22;2922;53.482;10.006;2023-11-21T16:04:35;6.20;99.90
5792;DHT22;2922;53.482;10.006;2023-11-21T16:07:03;6.20;99.90
5792;DHT22;2922;53.482;10.006;2023-11-21T16:09:31;6.20;99.90
5792;DHT22;2922;53.482;10.006;2023-11-21T16:11:57;6.20;99.90
5792;DHT22;2922;53.482;10.006;2023-11-21T16:14:28;6.20;99.90
5792;DHT22;2922;53.482;10.006;2023-11-21T16:17:01;6.10;99.90
5792;DHT22;2922;53.482;10.006;2023-11-21T16:19:27;6.10;99.90